Time;durP1;ratioP1;P1;durP2;ratioP2;P2;SDS_P1;SDS_P2;PMS_P1;PMS_P2;Temp;Humidity;BMP_temperature;BMP_pressure;BME280_temperature;BME280_humidity;BME280_pressure;Samples;Min_cycle;Max_cycle;Signal;HPM_P1;HPM_P2
2022/07/03 00:00:05;;;;;;;3.15;1.40;;;18.40;67.20;;;;;;5037162;28;20033;-70
2022/07/03 00:02:31;;;;;;;1.67;1.20;;;18.50;66.50;;;;;;5044264;28;20128;-70
2022/07/03 00:04:56;;;;;;;3.83;1.48;;;18.50;67.10;;;;;;5045073;28;20129;-70
2022/07/03 00:07:22;;;;;;;2.97;1.30;;;18.50;67.00;;;;;;5041746;28;20103;-70
2022/07/03 00:09:48;;;;;;;4.70;1.42;;;18.50;66.50;;;;;;5040437;28;20041;-70
2022/07/03 00:12:14;;;;;;;5.32;1.33;;;18.50;67.80;;;;;;5043607;28;20032;-70
2022/07/03 00:14:39;;;;;;;2.50;1.33;;;18.50;67.20;;;;;;5043483;28;20052;-70
2022/07/03 00:17:05;;;;;;;3.72;1.20;;;18.50;67.50;;;;;;5043112;28;20086;-70
2022/07/03 00:19:30;;;;;;;2.78;1.42;;;18.40;67.10;;;;;;5041984;28;20408;-70
2022/07/03 00:22:01;;;;;;;2.60;1.70;;;18.40;67.30;;;;;;5045830;28;20037;-70
2022/07/03 00:24:43;;;;;;;4.53;1.30;;;18.40;67.50;;;;;;5043702;28;20041;-70
2022/07/03 00:27:09;;;;;;;5.55;1.50;;;18.40;67.20;;;;;;5043836;28;20123;-70
2022/07/03 00:29:42;;;;;;;2.78;1.15;;;18.40;67.90;;;;;;5043429;28;20048;-70
2022/07/03 00:32:10;;;;;;;3.35;1.50;;;18.30;67.50;;;;;;5042647;28;20694;-70
2022/07/03 00:34:37;;;;;;;2.28;1.23;;;18.30;68.10;;;;;;5042379;28;20443;-70
2022/07/03 00:37:05;;;;;;;2.95;1.25;;;18.30;68.00;;;;;;5041250;28;20479;-70
2022/07/03 00:39:32;;;;;;;4.70;1.52;;;18.10;68.00;;;;;;5043615;28;20049;-70
2022/07/03 00:42:02;;;;;;;3.90;1.48;;;18.00;68.70;;;;;;5042398;28;20179;-70
2022/07/03 00:44:35;;;;;;;2.72;1.30;;;18.00;68.80;;;;;;5043590;28;20124;-70
2022/07/03 00:47:02;;;;;;;2.40;1.45;;;18.00;69.20;;;;;;5044024;28;20116;-70
2022/07/03 00:49:31;;;;;;;3.03;1.50;;;17.90;68.90;;;;;;5045538;28;20033;-70
2022/07/03 00:51:58;;;;;;;1.83;1.20;;;17.90;68.40;;;;;;5047150;28;20045;-70
2022/07/03 00:54:25;;;;;;;3.95;1.77;;;17.80;69.00;;;;;;5033035;28;20178;-70
2022/07/03 00:56:52;;;;;;;2.33;1.20;;;17.80;68.80;;;;;;5042661;28;20033;-70
2022/07/03 00:59:18;;;;;;;2.47;1.30;;;17.80;69.10;;;;;;5035344;28;20017;-70
2022/07/03 01:01:45;;;;;;;2.13;1.23;;;17.80;69.10;;;;;;5040805;28;20029;-70
2022/07/03 01:04:20;;;;;;;6.03;1.20;;;17.80;68.80;;;;;;5045895;28;20036;-70
2022/07/03 01:07:05;;;;;;;1.42;1.10;;;17.90;68.60;;;;;;5048151;28;20514;-70
2022/07/03 01:10:09;;;;;;;2.25;1.20;;;18.00;68.30;;;;;;5040687;28;20087;-70
2022/07/03 01:13:02;;;;;;;1.50;1.10;;;18.00;67.60;;;;;;5043610;28;20099;-70
2022/07/03 01:15:53;;;;;;;1.35;1.08;;;18.10;67.00;;;;;;5039185;28;20043;-70
2022/07/03 01:18:45;;;;;;;1.85;1.20;;;18.20;67.00;;;;;;5041427;28;20055;-70
2022/07/03 01:21:35;;;;;;;1.58;1.00;;;18.20;66.80;;;;;;5045820;28;20329;-70
2022/07/03 01:24:18;;;;;;;3.13;1.40;;;18.20;66.50;;;;;;5044441;28;20104;-70
2022/07/03 01:26:46;;;;;;;3.03;1.10;;;18.20;66.00;;;;;;5041818;28;20471;-70
2022/07/03 01:29:18;;;;;;;1.73;1.10;;;18.30;66.10;;;;;;5041318;28;20065;-70
2022/07/03 01:31:46;;;;;;;1.63;1.10;;;18.30;65.60;;;;;;5044961;28;20037;-70
2022/07/03 01:34:16;;;;;;;1.35;0.90;;;18.40;65.80;;;;;;5046167;28;20029;-70
2022/07/03 01:36:43;;;;;;;2.75;1.20;;;18.40;65.60;;;;;;5050991;28;20084;-70
2022/07/03 01:39:10;;;;;;;1.73;0.88;;;18.40;66.10;;;;;;5048205;28;20029;-70
2022/07/03 01:41:37;;;;;;;3.17;1.25;;;18.40;65.60;;;;;;5044114;28;20173;-70
2022/07/03 01:44:05;;;;;;;3.40;1.10;;;18.40;65.50;;;;;;5040117;28;20481;-70
2022/07/03 01:46:32;;;;;;;2.55;1.27;;;18.40;65.70;;;;;;5046128;28;20029;-70
2022/07/03 01:48:59;;;;;;;1.77;1.20;;;18.40;65.40;;;;;;5046307;28;20025;-70
2022/07/03 01:51:26;;;;;;;2.65;1.08;;;18.40;65.80;;;;;;5041389;28;20029;-70
2022/07/03 01:53:52;;;;;;;2.72;0.90;;;18.40;65.90;;;;;;5049466;28;20037;-70
2022/07/03 01:56:22;;;;;;;1.73;0.93;;;18.30;65.60;;;;;;5044181;28;20476;-70
2022/07/03 01:58:48;;;;;;;3.63;1.20;;;18.30;66.00;;;;;;5044066;28;20036;-70
2022/07/03 02:01:21;;;;;;;1.50;0.90;;;18.30;65.90;;;;;;5047067;28;20033;-70
2022/07/03 02:03:56;;;;;;;1.27;1.13;;;18.30;65.80;;;;;;5047882;28;20035;-70
2022/07/03 02:06:42;;;;;;;2.95;1.13;;;18.30;65.60;;;;;;5047816;28;20397;-70
2022/07/03 02:09:10;;;;;;;2.40;1.00;;;18.30;66.20;;;;;;5049054;28;20357;-70
2022/07/03 02:11:39;;;;;;;2.38;1.00;;;18.20;65.90;;;;;;5040817;28;20063;-70
2022/07/03 02:14:14;;;;;;;4.78;1.20;;;18.20;66.60;;;;;;5041907;28;20234;-70
2022/07/03 02:17:17;;;;;;;1.30;1.20;;;18.10;66.40;;;;;;5040960;28;20073;-70
2022/07/03 02:20:00;;;;;;;1.50;1.08;;;18.10;66.40;;;;;;5043392;28;20053;-70
2022/07/03 02:22:32;;;;;;;2.38;1.13;;;18.10;66.70;;;;;;5044381;28;20033;-70
2022/07/03 02:25:06;;;;;;;2.35;1.00;;;18.00;67.00;;;;;;5046145;28;20064;-70
2022/07/03 02:27:41;;;;;;;1.50;1.00;;;18.00;67.00;;;;;;5046099;28;20360;-70
2022/07/03 02:30:07;;;;;;;1.88;1.08;;;17.90;67.30;;;;;;5045888;28;20025;-70
2022/07/03 02:32:38;;;;;;;2.08;1.05;;;17.80;67.70;;;;;;5047938;28;20029;-70
2022/07/03 02:35:10;;;;;;;2.05;1.23;;;17.70;67.90;;;;;;5044744;28;20469;-70
2022/07/03 02:38:04;;;;;;;3.83;1.00;;;17.70;67.70;;;;;;5039851;28;20033;-70
2022/07/03 02:40:49;;;;;;;1.65;1.10;;;17.70;68.00;;;;;;5032156;28;20139;-70
2022/07/03 02:43:31;;;;;;;1.45;0.90;;;17.60;68.10;;;;;;5046896;28;20051;-70
2022/07/03 02:46:48;;;;;;;;;;;17.60;68.50;;;;;;5042226;28;20032;-70
2022/07/03 02:49:00;;;;;;;1.10;1.00;;;17.50;68.50;;;;;;5047624;28;19909;-70
2022/07/03 02:51:34;;;;;;;2.90;0.90;;;17.40;68.80;;;;;;5047634;28;20029;-70
2022/07/03 02:54:08;;;;;;;2.15;1.20;;;17.40;68.80;;;;;;5046257;28;20033;-70
2022/07/03 02:56:46;;;;;;;3.17;1.00;;;17.40;68.80;;;;;;5040734;28;20095;-70
2022/07/03 02:59:17;;;;;;;2.38;1.20;;;17.40;68.90;;;;;;5046622;28;20033;-70
2022/07/03 03:01:57;;;;;;;;;;;17.30;69.10;;;;;;5048552;28;20040;-70
2022/07/03 03:04:31;;;;;;;3.53;1.10;;;17.30;69.40;;;;;;5043271;28;19909;-70
2022/07/03 03:07:08;;;;;;;4.60;1.13;;;17.30;69.20;;;;;;5048422;28;20033;-70
2022/07/03 03:10:00;;;;;;;1.83;1.23;;;17.40;69.10;;;;;;5045116;28;20404;-70
2022/07/03 03:12:36;;;;;;;4.65;1.17;;;17.40;69.00;;;;;;5042697;28;20453;-70
2022/07/03 03:15:03;;;;;;;2.85;1.17;;;17.30;69.40;;;;;;5040494;28;20328;-70
2022/07/03 03:17:41;;;;;;;1.90;1.20;;;17.40;69.20;;;;;;5046064;28;20037;-70
2022/07/03 03:20:09;;;;;;;1.77;1.20;;;17.30;69.60;;;;;;5045534;28;20460;-70
2022/07/03 03:22:59;;;;;;;1.38;0.98;;;17.30;69.60;;;;;;5049444;28;20102;-70
2022/07/03 03:25:25;;;;;;;3.73;1.30;;;17.20;69.80;;;;;;5046319;28;20473;-70
2022/07/03 03:27:51;;;;;;;2.47;1.20;;;17.20;69.80;;;;;;5043433;28;20331;-70
2022/07/03 03:30:17;;;;;;;6.15;1.30;;;17.20;69.90;;;;;;5043348;28;20112;-70
2022/07/03 03:32:42;;;;;;;3.03;1.23;;;17.20;69.90;;;;;;5045710;28;20119;-70
2022/07/03 03:35:09;;;;;;;1.95;1.23;;;17.20;70.20;;;;;;5045909;28;20438;-70
2022/07/03 03:37:34;;;;;;;3.72;1.20;;;17.10;70.40;;;;;;5044426;28;20044;-70
2022/07/03 03:40:05;;;;;;;2.25;1.30;;;17.10;70.00;;;;;;5046997;28;20396;-70
2022/07/03 03:42:30;;;;;;;1.08;0.95;;;17.10;70.60;;;;;;5039965;28;20171;-70
2022/07/03 03:44:56;;;;;;;4.60;1.20;;;17.10;70.30;;;;;;5041558;28;20116;-70
2022/07/03 03:47:21;;;;;;;3.25;1.20;;;17.10;70.30;;;;;;5047655;28;20665;-70
2022/07/03 03:49:47;;;;;;;2.92;1.25;;;17.00;70.80;;;;;;5047721;28;20044;-70
2022/07/03 03:52:13;;;;;;;1.88;1.33;;;17.00;71.00;;;;;;5043064;28;20441;-70
2022/07/03 03:54:38;;;;;;;2.00;1.38;;;17.00;71.00;;;;;;5043515;28;20068;-70
2022/07/03 03:57:17;;;;;;;1.92;1.40;;;17.10;70.80;;;;;;5037469;28;20115;-70
2022/07/03 03:59:42;;;;;;;2.60;1.23;;;17.00;71.40;;;;;;5042290;28;20033;-70
2022/07/03 04:02:08;;;;;;;3.55;1.10;;;17.00;71.20;;;;;;5049525;28;20163;-70
2022/07/03 04:04:33;;;;;;;1.90;1.35;;;17.10;71.30;;;;;;5046759;28;20340;-70
2022/07/03 04:06:59;;;;;;;2.50;1.10;;;17.00;71.70;;;;;;5046116;28;20033;-70
2022/07/03 04:09:24;;;;;;;1.38;1.20;;;17.00;71.90;;;;;;5039683;28;20037;-70
2022/07/03 04:11:50;;;;;;;4.22;1.40;;;17.00;71.70;;;;;;5044577;28;20191;-70
2022/07/03 04:14:15;;;;;;;2.75;1.20;;;17.00;72.30;;;;;;5047525;28;20165;-70
2022/07/03 04:16:41;;;;;;;1.80;1.15;;;17.00;72.10;;;;;;5043953;28;20040;-70
2022/07/03 04:19:06;;;;;;;2.10;1.00;;;17.00;72.10;;;;;;5045525;28;20041;-69
2022/07/03 04:21:32;;;;;;;4.93;1.20;;;17.00;72.10;;;;;;5047874;28;20422;-69
2022/07/03 04:23:57;;;;;;;1.30;1.20;;;17.10;72.10;;;;;;5040691;28;20051;-69
2022/07/03 04:26:23;;;;;;;2.47;1.10;;;17.10;71.60;;;;;;5035093;28;20036;-69
2022/07/03 04:28:48;;;;;;;2.42;1.40;;;17.10;72.40;;;;;;5042689;28;20040;-69
2022/07/03 04:31:14;;;;;;;4.13;1.30;;;17.10;71.90;;;;;;5045572;28;20100;-69
2022/07/03 04:33:39;;;;;;;1.52;1.10;;;17.20;72.00;;;;;;5043072;28;20040;-69
2022/07/03 04:36:05;;;;;;;1.48;1.13;;;17.30;71.50;;;;;;5046136;28;20052;-69
2022/07/03 04:38:31;;;;;;;2.35;1.20;;;17.30;71.60;;;;;;5043930;28;20115;-69
2022/07/03 04:40:57;;;;;;;3.30;1.35;;;17.30;71.60;;;;;;5039383;28;20134;-69
2022/07/03 04:43:22;;;;;;;1.98;1.30;;;17.50;71.30;;;;;;5041972;28;20487;-69
2022/07/03 04:45:48;;;;;;;3.38;1.30;;;17.40;71.80;;;;;;5044398;28;20484;-69
2022/07/03 04:48:13;;;;;;;5.97;1.45;;;17.30;72.10;;;;;;5045642;28;20029;-69
2022/07/03 04:50:38;;;;;;;3.55;1.45;;;17.30;72.60;;;;;;5046973;28;20143;-69
2022/07/03 04:53:04;;;;;;;3.08;1.33;;;17.30;72.80;;;;;;5044665;28;20029;-69
2022/07/03 04:55:29;;;;;;;3.45;1.25;;;17.40;73.20;;;;;;5042575;28;20037;-69
2022/07/03 04:57:55;;;;;;;1.42;1.08;;;17.40;73.30;;;;;;5040012;28;20108;-69
2022/07/03 05:00:20;;;;;;;2.53;1.35;;;17.50;73.50;;;;;;5039704;28;20036;-69
2022/07/03 05:02:46;;;;;;;2.78;1.30;;;17.50;73.60;;;;;;5050571;28;20052;-69
2022/07/03 05:05:11;;;;;;;3.17;1.52;;;17.60;73.40;;;;;;5046445;28;20029;-69
2022/07/03 05:07:37;;;;;;;2.60;1.48;;;17.50;73.70;;;;;;5043162;28;20108;-69
2022/07/03 05:10:03;;;;;;;1.83;1.40;;;17.60;74.10;;;;;;5044007;28;20091;-69
2022/07/03 05:12:28;;;;;;;1.40;1.10;;;17.50;74.20;;;;;;5049238;28;20040;-69
2022/07/03 05:14:54;;;;;;;6.75;1.50;;;17.50;73.80;;;;;;5046743;28;20043;-69
2022/07/03 05:17:19;;;;;;;1.92;1.23;;;17.50;74.30;;;;;;5047888;28;20120;-69
2022/07/03 05:19:45;;;;;;;1.83;1.20;;;17.70;74.30;;;;;;5050371;28;20057;-70
2022/07/03 05:22:10;;;;;;;2.70;1.45;;;17.80;74.60;;;;;;5050833;28;20037;-69
2022/07/03 05:24:36;;;;;;;3.67;1.80;;;18.00;74.20;;;;;;5048620;28;20340;-69
2022/07/03 05:27:02;;;;;;;4.60;1.50;;;18.00;73.20;;;;;;5049425;28;20444;-68
2022/07/03 05:29:27;;;;;;;2.08;1.58;;;18.20;72.10;;;;;;5043423;28;20056;-67
2022/07/03 05:31:53;;;;;;;4.15;1.40;;;18.20;72.40;;;;;;5050194;28;20036;-67
2022/07/03 05:34:18;;;;;;;5.22;1.52;;;18.30;73.30;;;;;;5043940;28;20491;-67
2022/07/03 05:36:44;;;;;;;2.53;1.23;;;18.20;73.70;;;;;;5050650;28;20072;-68
2022/07/03 05:41:54;;;;;;;1.60;1.20;;;18.30;73.60;;;;;;5044650;28;20064;-67
2022/07/03 05:44:19;;;;;;;2.50;1.38;;;18.40;72.20;;;;;;5045059;28;20401;-67
2022/07/03 05:46:45;;;;;;;3.92;1.23;;;18.50;71.70;;;;;;5047252;28;20102;-67
2022/07/03 05:49:10;;;;;;;2.13;1.27;;;18.70;71.80;;;;;;5048249;28;20032;-67
2022/07/03 05:51:36;;;;;;;2.42;1.38;;;18.80;72.10;;;;;;5041555;28;20119;-67
2022/07/03 05:54:01;;;;;;;2.47;1.38;;;18.90;71.80;;;;;;5044418;28;20483;-67
2022/07/03 05:56:27;;;;;;;4.75;1.25;;;19.00;72.00;;;;;;5044484;28;20033;-68
2022/07/03 05:58:52;;;;;;;1.35;1.13;;;19.10;71.00;;;;;;5042829;28;20025;-68
2022/07/03 06:01:17;;;;;;;3.20;1.33;;;19.30;69.70;;;;;;5043867;28;20045;-68
2022/07/03 06:03:43;;;;;;;4.18;1.30;;;19.40;69.70;;;;;;5042357;28;20033;-68
2022/07/03 06:06:09;;;;;;;3.03;1.70;;;19.50;68.50;;;;;;5048624;28;20116;-68
2022/07/03 06:08:34;;;;;;;2.75;1.20;;;19.60;68.60;;;;;;5051299;28;20330;-68
2022/07/03 06:11:00;;;;;;;2.50;1.25;;;19.70;67.80;;;;;;5043300;28;20028;-68
2022/07/03 06:13:25;;;;;;;1.27;1.10;;;19.90;67.70;;;;;;5047913;28;20029;-68
2022/07/03 06:15:51;;;;;;;3.97;1.50;;;20.00;67.40;;;;;;5048904;28;20036;-68
2022/07/03 06:18:16;;;;;;;1.90;1.10;;;20.20;67.20;;;;;;5046720;28;20043;-68
2022/07/03 06:20:42;;;;;;;3.13;1.30;;;20.40;67.70;;;;;;5046997;28;20021;-68
2022/07/03 06:23:07;;;;;;;2.47;1.25;;;20.50;66.40;;;;;;5047771;28;20064;-68
2022/07/03 06:25:33;;;;;;;3.42;1.27;;;20.50;66.10;;;;;;5046162;28;20445;-68
2022/07/03 06:27:58;;;;;;;2.10;1.30;;;20.60;65.90;;;;;;5039380;28;20029;-68
2022/07/03 06:30:24;;;;;;;2.17;1.23;;;20.70;65.00;;;;;;5043932;28;20069;-68
2022/07/03 06:32:49;;;;;;;2.33;0.90;;;20.80;65.30;;;;;;5046092;28;20057;-68
2022/07/03 06:35:15;;;;;;;2.67;1.33;;;21.00;65.90;;;;;;5044721;28;20040;-68
2022/07/03 06:37:40;;;;;;;3.28;1.38;;;21.10;64.60;;;;;;5047811;28;20036;-68
2022/07/03 06:40:06;;;;;;;3.20;1.45;;;21.30;64.70;;;;;;5045121;28;20660;-68
2022/07/03 06:42:31;;;;;;;3.30;1.55;;;21.60;63.70;;;;;;5045986;28;20088;-68
2022/07/03 06:44:57;;;;;;;3.67;1.30;;;21.70;63.50;;;;;;5041065;28;20120;-68
2022/07/03 06:47:22;;;;;;;2.40;1.20;;;22.00;62.70;;;;;;5047088;28;20043;-68
2022/07/03 06:49:48;;;;;;;4.85;1.30;;;22.20;62.00;;;;;;5045305;28;20044;-68
2022/07/03 06:52:14;;;;;;;5.40;1.40;;;22.30;61.50;;;;;;5047859;28;20060;-68
2022/07/03 06:54:43;;;;;;;2.33;1.20;;;22.30;59.90;;;;;;5047735;28;20392;-68
2022/07/03 06:57:12;;;;;;;4.50;1.50;;;22.20;58.90;;;;;;5043461;28;20383;-68
2022/07/03 06:59:38;;;;;;;3.13;1.20;;;22.30;59.90;;;;;;5042509;28;20621;-68
2022/07/03 07:02:03;;;;;;;3.45;1.10;;;22.50;60.30;;;;;;5043089;28;20033;-68
2022/07/03 07:04:29;;;;;;;3.13;1.40;;;22.50;61.80;;;;;;5050177;28;20102;-68
2022/07/03 07:06:54;;;;;;;3.25;1.35;;;22.50;59.60;;;;;;5045685;28;20031;-68
2022/07/03 07:09:20;;;;;;;4.03;1.38;;;22.50;60.50;;;;;;5046417;28;20059;-68
2022/07/03 07:11:45;;;;;;;2.60;1.42;;;22.60;59.10;;;;;;5043685;28;20044;-68
2022/07/03 07:14:11;;;;;;;2.33;1.42;;;22.60;60.30;;;;;;5042765;28;20044;-68
2022/07/03 07:16:36;;;;;;;2.25;1.30;;;22.70;59.70;;;;;;5044245;28;20043;-68
2022/07/03 07:19:02;;;;;;;2.88;1.20;;;22.70;59.80;;;;;;5046663;28;20049;-68
2022/07/03 07:21:27;;;;;;;1.90;1.17;;;22.60;58.90;;;;;;5045873;28;20147;-68
2022/07/03 07:23:53;;;;;;;4.93;1.20;;;23.00;59.40;;;;;;5048928;28;20061;-68
2022/07/03 07:26:20;;;;;;;2.83;1.50;;;23.10;59.20;;;;;;5045807;28;20480;-68
2022/07/03 07:28:46;;;;;;;5.25;1.65;;;23.20;59.00;;;;;;5042174;28;20519;-68
2022/07/03 07:31:11;;;;;;;5.15;1.20;;;23.30;57.90;;;;;;5042118;28;20479;-68
2022/07/03 07:33:37;;;;;;;4.03;1.40;;;23.00;57.50;;;;;;5048206;28;20040;-68
2022/07/03 07:36:03;;;;;;;2.95;1.30;;;23.20;58.60;;;;;;5037008;28;20029;-68
2022/07/03 07:38:28;;;;;;;2.88;1.20;;;23.60;58.60;;;;;;5045722;28;20036;-67
2022/07/03 07:40:54;;;;;;;1.92;1.30;;;23.60;56.30;;;;;;5047056;28;20054;-67
2022/07/03 07:43:19;;;;;;;4.30;1.58;;;23.80;56.50;;;;;;5042357;28;20420;-67
2022/07/03 07:45:45;;;;;;;2.72;1.23;;;23.90;56.30;;;;;;5041605;28;20036;-66
2022/07/03 07:48:10;;;;;;;2.60;1.30;;;23.80;57.40;;;;;;5040400;28;20025;-65
2022/07/03 07:50:36;;;;;;;3.33;1.38;;;24.30;56.50;;;;;;5046415;28;20033;-65
2022/07/03 07:53:01;;;;;;;3.28;1.30;;;24.10;55.00;;;;;;5040853;28;20032;-66
2022/07/03 07:55:27;;;;;;;3.08;1.38;;;24.10;55.60;;;;;;5038540;28;20502;-66
2022/07/03 07:57:52;;;;;;;3.53;1.30;;;23.90;56.60;;;;;;5042119;28;20445;-66
2022/07/03 08:00:19;;;;;;;2.42;1.38;;;23.80;56.90;;;;;;5033577;28;20130;-66
2022/07/03 08:05:37;;;;;;;10.10;1.55;;;23.60;58.10;;;;;;5036869;28;20036;-66
2022/07/03 08:08:11;;;;;;;4.28;1.50;;;24.00;58.10;;;;;;5039126;28;20376;-66
2022/07/03 08:10:42;;;;;;;4.00;1.27;;;24.00;57.30;;;;;;5044634;28;20033;-66
2022/07/03 08:13:08;;;;;;;4.47;1.50;;;23.90;57.90;;;;;;5035827;28;20053;-66
2022/07/03 08:15:34;;;;;;;6.78;1.80;;;23.80;58.10;;;;;;5037802;28;20055;-66
2022/07/03 08:18:00;;;;;;;2.05;1.30;;;23.70;58.50;;;;;;5037162;28;20353;-67
2022/07/03 08:20:26;;;;;;;3.05;1.50;;;23.60;60.00;;;;;;5046513;28;20052;-66
2022/07/03 08:22:51;;;;;;;3.83;1.60;;;23.50;59.30;;;;;;5044871;28;20029;-66
2022/07/03 08:25:17;;;;;;;2.80;1.40;;;23.20;60.40;;;;;;5042919;28;20369;-66
2022/07/03 08:27:43;;;;;;;3.63;1.30;;;23.10;59.50;;;;;;5043360;28;20487;-66
2022/07/03 08:30:08;;;;;;;2.53;1.38;;;23.10;58.90;;;;;;5037199;28;20036;-66
2022/07/03 08:32:34;;;;;;;2.45;1.27;;;23.00;61.00;;;;;;5049266;28;20051;-65
2022/07/03 08:35:00;;;;;;;3.90;1.50;;;22.70;60.80;;;;;;5045279;28;20099;-65
2022/07/03 08:37:28;;;;;;;4.30;1.60;;;22.70;61.50;;;;;;5045968;28;20037;-65
2022/07/03 08:39:53;;;;;;;2.13;1.40;;;22.70;61.90;;;;;;5040245;28;20048;-65
2022/07/03 08:42:21;;;;;;;1.85;1.40;;;22.80;62.50;;;;;;5042175;28;20222;-65
2022/07/03 08:44:50;;;;;;;2.47;1.30;;;22.80;62.00;;;;;;5042534;28;20040;-65
2022/07/03 08:47:17;;;;;;;4.38;1.55;;;22.90;62.80;;;;;;5046728;28;20086;-65
2022/07/03 08:49:42;;;;;;;2.38;1.30;;;22.90;61.70;;;;;;5045773;28;20101;-65
2022/07/03 08:52:10;;;;;;;3.03;1.45;;;23.00;58.80;;;;;;5045123;28;20476;-65
2022/07/03 08:54:36;;;;;;;1.60;1.23;;;23.00;59.80;;;;;;5035974;28;20120;-66
2022/07/03 08:57:02;;;;;;;4.00;1.20;;;23.10;59.90;;;;;;5034549;28;20128;-66
2022/07/03 08:59:52;;;;;;;4.28;1.52;;;23.70;58.30;;;;;;5043414;28;20438;-66
2022/07/03 09:02:18;;;;;;;2.92;1.25;;;24.50;55.50;;;;;;5046124;28;20136;-66
2022/07/03 09:04:45;;;;;;;1.88;1.10;;;24.80;56.80;;;;;;5045629;28;20555;-69
2022/07/03 09:07:12;;;;;;;3.00;1.50;;;25.10;53.20;;;;;;5045559;28;20063;-67
2022/07/03 09:09:39;;;;;;;2.88;1.17;;;25.10;51.20;;;;;;5041854;28;20033;-66
2022/07/03 09:12:05;;;;;;;1.60;0.85;;;25.20;53.30;;;;;;5037733;28;20063;-67
2022/07/03 09:14:30;;;;;;;1.80;1.10;;;25.60;50.10;;;;;;5043613;28;20045;-66
2022/07/03 09:16:56;;;;;;;3.00;1.60;;;25.50;48.60;;;;;;5045784;28;20036;-67
2022/07/03 09:19:42;;;;;;;6.10;1.25;;;25.50;50.00;;;;;;5044116;28;20069;-67
2022/07/03 09:22:29;;;;;;;6.30;1.38;;;25.80;49.70;;;;;;5043599;28;20029;-67
2022/07/03 09:25:06;;;;;;;1.77;1.02;;;25.40;50.60;;;;;;5040287;28;20037;-67
2022/07/03 09:27:32;;;;;;;7.57;1.40;;;25.50;53.10;;;;;;5043261;28;20139;-67
2022/07/03 09:30:06;;;;;;;1.77;1.25;;;25.60;52.20;;;;;;5040461;28;20013;-67
2022/07/03 09:32:46;;;;;;;4.00;1.17;;;25.90;49.40;;;;;;5041148;28;20275;-67
2022/07/03 09:35:17;;;;;;;1.77;1.10;;;26.30;49.90;;;;;;5035284;28;20085;-67
2022/07/03 09:37:58;;;;;;;4.43;1.52;;;26.40;50.10;;;;;;5045256;28;20455;-67
2022/07/03 09:40:24;;;;;;;;;;;26.00;48.80;;;;;;5042560;28;20466;-67
2022/07/03 09:43:04;;;;;;;4.15;1.40;;;26.20;48.50;;;;;;5036964;28;19920;-70
2022/07/03 09:45:49;;;;;;;2.90;1.20;;;26.00;48.00;;;;;;5037591;28;20496;-68
2022/07/03 09:48:25;;;;;;;1.58;1.17;;;26.20;49.60;;;;;;5041281;28;20040;-68
2022/07/03 09:51:16;;;;;;;3.50;1.00;;;26.40;47.80;;;;;;5043993;28;20475;-68
2022/07/03 09:54:02;;;;;;;2.30;0.93;;;26.40;47.70;;;;;;5042155;28;20116;-68
2022/07/03 09:56:36;;;;;;;2.00;1.00;;;26.60;48.60;;;;;;5040111;28;20037;-68
2022/07/03 09:59:10;;;;;;;1.08;0.70;;;27.10;49.00;;;;;;5040008;28;20029;-67
2022/07/03 10:01:43;;;;;;;3.60;1.10;;;27.10;44.90;;;;;;5045933;28;20025;-67
2022/07/03 10:04:22;;;;;;;1.52;0.82;;;27.20;45.00;;;;;;5047044;28;20021;-68
2022/07/03 10:06:50;;;;;;;2.45;0.80;;;27.50;44.20;;;;;;5044584;28;20394;-68
2022/07/03 10:09:19;;;;;;;1.30;0.73;;;27.50;42.50;;;;;;5048812;28;20033;-67
2022/07/03 10:11:45;;;;;;;2.00;0.98;;;27.50;42.30;;;;;;5038468;28;20080;-68
2022/07/03 10:14:14;;;;;;;1.40;0.75;;;27.50;42.60;;;;;;5042747;28;20083;-67
2022/07/03 10:16:40;;;;;;;3.25;0.95;;;28.10;44.70;;;;;;5043439;28;20040;-67
2022/07/03 10:19:06;;;;;;;4.97;0.80;;;28.30;42.60;;;;;;5043729;28;20053;-67
2022/07/03 10:21:36;;;;;;;3.47;0.88;;;28.60;44.20;;;;;;5039344;28;20392;-68
2022/07/03 10:24:03;;;;;;;1.10;0.70;;;28.90;41.40;;;;;;5039097;28;20040;-68
2022/07/03 10:26:29;;;;;;;2.55;1.15;;;28.30;38.90;;;;;;5047433;28;20025;-69
2022/07/03 10:28:56;;;;;;;2.25;0.75;;;28.90;40.30;;;;;;5039239;28;20025;-69
2022/07/03 10:31:24;;;;;;;2.17;0.70;;;29.00;39.70;;;;;;5042777;28;20341;-70
2022/07/03 10:33:51;;;;;;;3.03;0.57;;;28.00;40.50;;;;;;5041029;28;20037;-70
2022/07/03 10:36:17;;;;;;;1.52;0.88;;;27.70;42.60;;;;;;5042901;28;20149;-70
2022/07/03 10:38:47;;;;;;;2.10;0.80;;;27.60;42.50;;;;;;5040634;28;20407;-69
2022/07/03 10:46:51;;;;;;;2.03;0.80;;;27.40;42.90;;;;;;5048541;28;20396;-69
2022/07/03 10:49:17;;;;;;;3.45;0.65;;;27.10;40.60;;;;;;5041515;28;20034;-69
2022/07/03 10:51:49;;;;;;;1.10;0.55;;;27.50;41.20;;;;;;5048415;28;20060;-70
2022/07/03 10:54:16;;;;;;;2.60;0.77;;;27.90;40.20;;;;;;5042588;28;20400;-70
2022/07/03 10:57:00;;;;;;;2.30;0.85;;;28.60;39.60;;;;;;5040085;28;20033;-70
2022/07/03 10:59:32;;;;;;;2.40;0.75;;;28.70;39.70;;;;;;5043355;28;20032;-70
2022/07/03 11:02:18;;;;;;;1.70;0.77;;;29.20;42.60;;;;;;5049039;28;20537;-70
2022/07/03 11:04:56;;;;;;;4.63;0.77;;;29.40;38.70;;;;;;5041601;28;20503;-70
2022/07/03 11:07:22;;;;;;;1.65;0.80;;;29.50;38.00;;;;;;5047116;28;20148;-68
2022/07/03 11:10:13;;;;;;;2.20;0.75;;;29.10;39.10;;;;;;5046779;28;20025;-68
2022/07/03 11:13:12;;;;;;;2.13;0.90;;;29.60;37.10;;;;;;5048013;28;20033;-70
2022/07/03 11:15:42;;;;;;;1.85;0.68;;;29.50;36.00;;;;;;5049934;28;20155;-69
2022/07/03 11:18:23;;;;;;;1.10;0.73;;;29.30;37.20;;;;;;5046914;28;20025;-70
2022/07/03 11:20:49;;;;;;;1.20;0.60;;;29.80;37.70;;;;;;5045232;28;20033;-70
2022/07/03 11:23:26;;;;;;;3.13;0.82;;;30.20;37.10;;;;;;5049489;28;20379;-70
2022/07/03 11:25:54;;;;;;;1.33;0.50;;;29.90;36.80;;;;;;5048947;28;20039;-70
2022/07/03 11:28:32;;;;;;;1.98;0.65;;;30.10;37.70;;;;;;5046777;28;20040;-70
2022/07/03 11:31:16;;;;;;;1.65;0.80;;;29.80;37.80;;;;;;5050039;28;20040;-70
2022/07/03 11:33:51;;;;;;;1.73;0.60;;;29.50;38.40;;;;;;5042848;28;20026;-70
2022/07/03 11:36:17;;;;;;;2.00;1.00;;;29.90;37.80;;;;;;5041034;28;20029;-70
2022/07/03 11:38:57;;;;;;;1.08;0.57;;;29.90;38.00;;;;;;5047007;28;20090;-70
2022/07/03 11:41:24;;;;;;;2.92;1.00;;;30.30;39.60;;;;;;5040752;28;20063;-70
2022/07/03 11:43:54;;;;;;;2.40;0.85;;;29.90;37.80;;;;;;5038280;28;20037;-70
2022/07/03 11:46:31;;;;;;;2.40;0.70;;;30.30;39.00;;;;;;5048737;28;20028;-69
2022/07/03 11:49:14;;;;;;;4.30;0.70;;;29.40;39.10;;;;;;5043074;28;20071;-70
2022/07/03 11:51:43;;;;;;;4.18;0.90;;;29.70;39.30;;;;;;5043696;28;20547;-73
2022/07/03 11:54:08;;;;;;;2.72;0.63;;;29.90;36.80;;;;;;5038489;28;20040;-70
2022/07/03 11:56:36;;;;;;;1.35;0.88;;;30.20;36.70;;;;;;5042705;28;20496;-70
2022/07/03 11:59:04;;;;;;;1.98;0.70;;;30.70;35.80;;;;;;5040579;28;20460;-70
2022/07/03 12:01:32;;;;;;;1.92;0.68;;;30.70;36.20;;;;;;5038531;28;20116;-70
2022/07/03 12:04:09;;;;;;;1.25;0.70;;;31.40;37.00;;;;;;5047598;28;20021;-70
2022/07/03 12:06:48;;;;;;;1.75;0.55;;;30.80;36.00;;;;;;5046235;28;20032;-68
2022/07/03 12:09:22;;;;;;;1.25;0.60;;;31.10;35.20;;;;;;5042571;28;20044;-68
2022/07/03 12:12:05;;;;;;;2.67;0.70;;;30.60;34.80;;;;;;5044643;28;20036;-69
2022/07/03 12:14:50;;;;;;;1.42;0.43;;;30.70;36.80;;;;;;5043000;28;20417;-70
2022/07/03 12:17:21;;;;;;;1.65;0.50;;;30.70;33.70;;;;;;5035965;28;20025;-70
2022/07/03 12:19:47;;;;;;;1.23;0.50;;;31.00;34.30;;;;;;5043859;28;20042;-70
2022/07/03 12:22:25;;;;;;;1.33;0.70;;;31.10;35.30;;;;;;5044802;28;20429;-70
2022/07/03 12:25:00;;;;;;;3.20;0.50;;;31.90;34.40;;;;;;5046697;28;20459;-70
2022/07/03 12:27:26;;;;;;;2.47;0.60;;;32.00;34.80;;;;;;5043747;28;20056;-70
2022/07/03 12:29:52;;;;;;;1.35;0.50;;;32.10;31.80;;;;;;5043808;28;20033;-70
2022/07/03 12:32:17;;;;;;;2.40;0.57;;;31.00;32.40;;;;;;5042437;28;20502;-70
2022/07/03 12:34:43;;;;;;;1.38;0.52;;;31.20;32.00;;;;;;5035858;28;20041;-67
2022/07/03 12:37:09;;;;;;;0.95;0.50;;;31.80;32.10;;;;;;5038381;28;20021;-67
2022/07/03 12:39:46;;;;;;;1.83;0.70;;;31.60;34.00;;;;;;5044457;28;20043;-67
2022/07/03 12:42:21;;;;;;;2.78;0.50;;;32.20;31.20;;;;;;5045236;28;20028;-67
2022/07/03 12:45:00;;;;;;;2.55;0.47;;;32.70;32.40;;;;;;5044347;28;20041;-67
2022/07/03 12:47:27;;;;;;;0.63;0.30;;;34.00;31.10;;;;;;5038522;28;20037;-67
2022/07/03 12:50:01;;;;;;;2.10;0.60;;;33.60;32.70;;;;;;5041373;28;20036;-70
2022/07/03 12:52:31;;;;;;;1.50;0.63;;;34.40;32.20;;;;;;5048332;28;20059;-70
2022/07/03 12:54:58;;;;;;;1.48;0.50;;;33.30;30.60;;;;;;5041869;28;20037;-70
2022/07/03 13:00:11;;;;;;;0.77;0.50;;;32.50;32.80;;;;;;5034269;28;20032;-70
2022/07/03 13:02:39;;;;;;;2.72;0.52;;;33.50;28.70;;;;;;5038792;28;20547;-70
2022/07/03 13:05:22;;;;;;;1.25;0.50;;;34.30;29.40;;;;;;5043306;28;20037;-70
2022/07/03 13:07:50;;;;;;;0.98;0.50;;;34.20;26.00;;;;;;5037313;28;20048;-69
2022/07/03 13:10:17;;;;;;;4.22;0.50;;;34.30;28.50;;;;;;5041504;28;20094;-69
2022/07/03 13:12:57;;;;;;;1.08;0.40;;;33.40;28.90;;;;;;5037474;28;20033;-69
2022/07/03 13:15:27;;;;;;;3.22;0.70;;;33.20;29.60;;;;;;5041695;28;20040;-69